sensor_id;sensor_type;location;lat;lon;timestamp;P1;durP1;ratioP1;P2;durP2;ratioP2
3046;SDS011;1533;44.816;20.420;2022-10-16T06:19:37;9.87;;;6.00;;
3046;SDS011;1533;44.816;20.420;2022-10-16T06:22:02;6.70;;;5.47;;
3046;SDS011;1533;44.816;20.420;2022-10-16T06:24:36;6.10;;;5.40;;
3046;SDS011;1533;44.816;20.420;2022-10-16T06:27:23;10.03;;;5.43;;
3046;SDS011;1533;44.816;20.420;2022-10-16T06:36:50;6.57;;;5.20;;
3046;SDS011;1533;44.816;20.420;2022-10-16T06:40:02;5.10;;;4.60;;
3046;SDS011;1533;44.816;20.420;2022-10-16T06:43:14;9.07;;;6.00;;
3046;SDS011;1533;44.816;20.420;2022-10-16T06:46:12;5.90;;;4.77;;
3046;SDS011;1533;44.816;20.420;2022-10-16T06:49:06;9.30;;;5.97;;
3046;SDS011;1533;44.816;20.420;2022-10-16T06:51:58;6.53;;;5.20;;
3046;SDS011;1533;44.816;20.420;2022-10-16T07:02:27;5.30;;;4.73;;
3046;SDS011;1533;44.816;20.420;2022-10-16T07:05:46;6.67;;;5.50;;
3046;SDS011;1533;44.816;20.420;2022-10-16T07:34:00;7.43;;;5.50;;
3046;SDS011;1533;44.816;20.420;2022-10-16T07:36:37;6.77;;;4.93;;
3046;SDS011;1533;44.816;20.420;2022-10-16T07:39:03;9.70;;;5.97;;
3046;SDS011;1533;44.816;20.420;2022-10-16T07:41:31;8.33;;;5.80;;
3046;SDS011;1533;44.816;20.420;2022-10-16T07:44:04;11.27;;;7.13;;
3046;SDS011;1533;44.816;20.420;2022-10-16T07:46:32;7.63;;;6.27;;
3046;SDS011;1533;44.816;20.420;2022-10-16T07:48:59;7.20;;;5.63;;
3046;SDS011;1533;44.816;20.420;2022-10-16T07:51:25;7.63;;;5.77;;
3046;SDS011;1533;44.816;20.420;2022-10-16T07:54:00;6.47;;;5.13;;
3046;SDS011;1533;44.816;20.420;2022-10-16T07:56:31;6.60;;;5.60;;
3046;SDS011;1533;44.816;20.420;2022-10-16T07:58:59;9.30;;;6.00;;
3046;SDS011;1533;44.816;20.420;2022-10-16T08:01:35;8.43;;;5.80;;
3046;SDS011;1533;44.816;20.420;2022-10-16T08:04:36;8.23;;;6.50;;
3046;SDS011;1533;44.816;20.420;2022-10-16T08:07:18;8.90;;;5.27;;
3046;SDS011;1533;44.816;20.420;2022-10-16T08:13:01;6.53;;;5.50;;
3046;SDS011;1533;44.816;20.420;2022-10-16T08:22:30;6.20;;;5.10;;
3046;SDS011;1533;44.816;20.420;2022-10-16T08:28:10;7.30;;;5.93;;
3046;SDS011;1533;44.816;20.420;2022-10-16T08:30:46;7.90;;;5.73;;
3046;SDS011;1533;44.816;20.420;2022-10-16T08:33:30;9.07;;;6.10;;
3046;SDS011;1533;44.816;20.420;2022-10-16T08:36:18;6.27;;;4.87;;
3046;SDS011;1533;44.816;20.420;2022-10-16T08:39:07;8.73;;;5.57;;
3046;SDS011;1533;44.816;20.420;2022-10-16T08:42:01;6.47;;;5.80;;
3046;SDS011;1533;44.816;20.420;2022-10-16T08:50:32;6.93;;;5.87;;
3046;SDS011;1533;44.816;20.420;2022-10-16T08:53:04;7.27;;;5.27;;
3046;SDS011;1533;44.816;20.420;2022-10-16T08:58:25;6.70;;;5.13;;
3046;SDS011;1533;44.816;20.420;2022-10-16T09:01:04;11.10;;;5.30;;
3046;SDS011;1533;44.816;20.420;2022-10-16T09:03:48;9.73;;;5.80;;
3046;SDS011;1533;44.816;20.420;2022-10-16T09:06:58;7.07;;;4.80;;
3046;SDS011;1533;44.816;20.420;2022-10-16T09:22:48;8.13;;;4.90;;
3046;SDS011;1533;44.816;20.420;2022-10-16T09:25:42;7.40;;;5.67;;
3046;SDS011;1533;44.816;20.420;2022-10-16T09:28:12;5.97;;;4.67;;
3046;SDS011;1533;44.816;20.420;2022-10-16T09:30:42;5.77;;;5.13;;
3046;SDS011;1533;44.816;20.420;2022-10-16T09:33:13;6.43;;;5.63;;
3046;SDS011;1533;44.816;20.420;2022-10-16T09:35:45;6.37;;;5.73;;
3046;SDS011;1533;44.816;20.420;2022-10-16T09:45:28;8.53;;;6.40;;
3046;SDS011;1533;44.816;20.420;2022-10-16T10:07:35;8.73;;;6.23;;
3046;SDS011;1533;44.816;20.420;2022-10-16T14:13:02;8.57;;;7.03;;
3046;SDS011;1533;44.816;20.420;2022-10-16T14:15:36;8.13;;;6.83;;
3046;SDS011;1533;44.816;20.420;2022-10-16T14:18:17;14.53;;;8.30;;
3046;SDS011;1533;44.816;20.420;2022-10-16T14:20:48;9.03;;;7.03;;
3046;SDS011;1533;44.816;20.420;2022-10-16T14:23:21;10.40;;;7.70;;
3046;SDS011;1533;44.816;20.420;2022-10-16T14:25:49;9.10;;;7.50;;
3046;SDS011;1533;44.816;20.420;2022-10-16T14:28:19;9.43;;;7.60;;
3046;SDS011;1533;44.816;20.420;2022-10-16T14:30:53;8.40;;;7.47;;
3046;SDS011;1533;44.816;20.420;2022-10-16T14:33:23;9.63;;;7.10;;
3046;SDS011;1533;44.816;20.420;2022-10-16T14:38:37;10.50;;;8.53;;
3046;SDS011;1533;44.816;20.420;2022-10-16T14:41:07;9.23;;;7.57;;
3046;SDS011;1533;44.816;20.420;2022-10-16T14:44:06;7.73;;;6.60;;
3046;SDS011;1533;44.816;20.420;2022-10-16T14:46:51;10.40;;;6.50;;
3046;SDS011;1533;44.816;20.420;2022-10-16T14:52:42;7.50;;;6.50;;
3046;SDS011;1533;44.816;20.420;2022-10-16T14:55:10;8.40;;;7.20;;
3046;SDS011;1533;44.816;20.420;2022-10-16T14:57:36;9.03;;;6.20;;
3046;SDS011;1533;44.816;20.420;2022-10-16T15:00:18;10.50;;;6.90;;
3046;SDS011;1533;44.816;20.420;2022-10-16T15:02:47;8.60;;;6.43;;
3046;SDS011;1533;44.816;20.420;2022-10-16T15:08:16;7.60;;;6.13;;
3046;SDS011;1533;44.816;20.420;2022-10-16T15:10:45;10.10;;;7.20;;
3046;SDS011;1533;44.816;20.420;2022-10-16T15:13:11;9.30;;;6.80;;
3046;SDS011;1533;44.816;20.420;2022-10-16T15:15:45;11.10;;;7.37;;
3046;SDS011;1533;44.816;20.420;2022-10-16T15:18:20;8.90;;;6.63;;
3046;SDS011;1533;44.816;20.420;2022-10-16T15:20:50;7.03;;;6.07;;
3046;SDS011;1533;44.816;20.420;2022-10-16T15:23:17;7.77;;;6.43;;
3046;SDS011;1533;44.816;20.420;2022-10-16T15:25:45;9.23;;;6.83;;
3046;SDS011;1533;44.816;20.420;2022-10-16T15:28:15;8.13;;;6.63;;
3046;SDS011;1533;44.816;20.420;2022-10-16T15:30:42;10.47;;;7.43;;
3046;SDS011;1533;44.816;20.420;2022-10-16T15:33:14;8.33;;;7.20;;
3046;SDS011;1533;44.816;20.420;2022-10-16T15:35:50;7.97;;;6.47;;
3046;SDS011;1533;44.816;20.420;2022-10-16T15:38:20;9.93;;;7.77;;
3046;SDS011;1533;44.816;20.420;2022-10-16T15:40:47;8.23;;;6.67;;
3046;SDS011;1533;44.816;20.420;2022-10-16T16:44:30;10.30;;;7.40;;
3046;SDS011;1533;44.816;20.420;2022-10-16T16:47:15;11.60;;;7.90;;
3046;SDS011;1533;44.816;20.420;2022-10-16T16:58:40;13.40;;;8.20;;
3046;SDS011;1533;44.816;20.420;2022-10-16T17:04:48;13.77;;;7.57;;
3046;SDS011;1533;44.816;20.420;2022-10-16T17:07:24;9.20;;;7.63;;
3046;SDS011;1533;44.816;20.420;2022-10-16T17:13:26;10.03;;;7.90;;
3046;SDS011;1533;44.816;20.420;2022-10-16T17:22:24;15.17;;;9.70;;
3046;SDS011;1533;44.816;20.420;2022-10-16T17:25:27;12.10;;;10.00;;
3046;SDS011;1533;44.816;20.420;2022-10-16T17:28:15;11.63;;;9.60;;
3046;SDS011;1533;44.816;20.420;2022-10-16T17:34:36;13.80;;;10.20;;
3046;SDS011;1533;44.816;20.420;2022-10-16T17:39:49;12.37;;;9.70;;
3046;SDS011;1533;44.816;20.420;2022-10-16T17:42:23;15.50;;;10.20;;
3046;SDS011;1533;44.816;20.420;2022-10-16T17:45:21;16.30;;;10.93;;
3046;SDS011;1533;44.816;20.420;2022-10-16T17:48:06;15.97;;;10.60;;
3046;SDS011;1533;44.816;20.420;2022-10-16T17:50:52;13.70;;;10.30;;
3046;SDS011;1533;44.816;20.420;2022-10-16T17:53:52;13.50;;;11.30;;
3046;SDS011;1533;44.816;20.420;2022-10-16T18:00:22;16.20;;;10.30;;
3046;SDS011;1533;44.816;20.420;2022-10-16T18:16:28;12.03;;;10.63;;
3046;SDS011;1533;44.816;20.420;2022-10-16T18:19:58;11.90;;;10.03;;
3046;SDS011;1533;44.816;20.420;2022-10-16T18:37:46;14.40;;;10.20;;
3046;SDS011;1533;44.816;20.420;2022-10-16T18:40:32;12.87;;;10.70;;
3046;SDS011;1533;44.816;20.420;2022-10-16T18:43:35;15.20;;;11.70;;
3046;SDS011;1533;44.816;20.420;2022-10-16T18:46:24;12.77;;;11.40;;
3046;SDS011;1533;44.816;20.420;2022-10-16T18:49:25;11.77;;;10.53;;
3046;SDS011;1533;44.816;20.420;2022-10-16T18:51:56;11.60;;;10.40;;
3046;SDS011;1533;44.816;20.420;2022-10-16T18:54:45;13.87;;;10.90;;
3046;SDS011;1533;44.816;20.420;2022-10-16T18:57:15;16.10;;;11.50;;
3046;SDS011;1533;44.816;20.420;2022-10-16T18:59:53;15.63;;;12.30;;
3046;SDS011;1533;44.816;20.420;2022-10-16T19:02:28;14.03;;;12.23;;
3046;SDS011;1533;44.816;20.420;2022-10-16T19:04:54;13.97;;;11.10;;
3046;SDS011;1533;44.816;20.420;2022-10-16T19:07:33;16.13;;;11.40;;
3046;SDS011;1533;44.816;20.420;2022-10-16T19:10:07;14.50;;;13.00;;
3046;SDS011;1533;44.816;20.420;2022-10-16T19:12:33;12.47;;;11.27;;
3046;SDS011;1533;44.816;20.420;2022-10-16T19:15:12;14.33;;;10.90;;
3046;SDS011;1533;44.816;20.420;2022-10-16T19:17:40;15.10;;;11.33;;
3046;SDS011;1533;44.816;20.420;2022-10-16T19:20:09;12.43;;;11.10;;
3046;SDS011;1533;44.816;20.420;2022-10-16T19:22:43;13.30;;;10.30;;
3046;SDS011;1533;44.816;20.420;2022-10-16T19:25:40;12.87;;;11.17;;
3046;SDS011;1533;44.816;20.420;2022-10-16T19:28:18;18.23;;;10.93;;
3046;SDS011;1533;44.816;20.420;2022-10-16T19:30:44;15.93;;;11.50;;
3046;SDS011;1533;44.816;20.420;2022-10-16T19:33:10;14.67;;;11.80;;
3046;SDS011;1533;44.816;20.420;2022-10-16T19:38:33;13.20;;;11.50;;
3046;SDS011;1533;44.816;20.420;2022-10-16T19:41:09;13.60;;;11.67;;
3046;SDS011;1533;44.816;20.420;2022-10-16T19:43:46;17.77;;;12.10;;
3046;SDS011;1533;44.816;20.420;2022-10-16T19:46:13;17.53;;;11.93;;
3046;SDS011;1533;44.816;20.420;2022-10-16T19:49:09;14.20;;;11.70;;
3046;SDS011;1533;44.816;20.420;2022-10-16T19:57:45;14.00;;;11.40;;
3046;SDS011;1533;44.816;20.420;2022-10-16T20:00:11;14.50;;;13.03;;
3046;SDS011;1533;44.816;20.420;2022-10-16T20:02:41;13.50;;;10.90;;
3046;SDS011;1533;44.816;20.420;2022-10-16T20:05:10;15.47;;;11.60;;
3046;SDS011;1533;44.816;20.420;2022-10-16T20:07:36;15.40;;;12.70;;
3046;SDS011;1533;44.816;20.420;2022-10-16T20:20:40;15.90;;;13.30;;
3046;SDS011;1533;44.816;20.420;2022-10-16T20:24:02;19.90;;;12.63;;
3046;SDS011;1533;44.816;20.420;2022-10-16T20:26:30;20.90;;;13.80;;
3046;SDS011;1533;44.816;20.420;2022-10-16T20:29:24;20.17;;;12.10;;
3046;SDS011;1533;44.816;20.420;2022-10-16T20:31:53;17.80;;;12.20;;
3046;SDS011;1533;44.816;20.420;2022-10-16T20:34:19;16.70;;;12.23;;
3046;SDS011;1533;44.816;20.420;2022-10-16T20:37:04;16.00;;;13.50;;
3046;SDS011;1533;44.816;20.420;2022-10-16T20:39:33;15.17;;;11.87;;
3046;SDS011;1533;44.816;20.420;2022-10-16T20:42:14;17.27;;;11.40;;
3046;SDS011;1533;44.816;20.420;2022-10-16T20:44:40;16.87;;;14.00;;
3046;SDS011;1533;44.816;20.420;2022-10-16T20:47:41;25.53;;;20.30;;
3046;SDS011;1533;44.816;20.420;2022-10-16T20:50:06;20.50;;;16.50;;
3046;SDS011;1533;44.816;20.420;2022-10-16T20:52:37;22.87;;;20.20;;
3046;SDS011;1533;44.816;20.420;2022-10-16T20:55:11;22.43;;;19.37;;
3046;SDS011;1533;44.816;20.420;2022-10-16T20:57:42;21.60;;;15.77;;
3046;SDS011;1533;44.816;20.420;2022-10-16T21:00:08;21.00;;;14.27;;
3046;SDS011;1533;44.816;20.420;2022-10-16T21:02:34;15.73;;;13.33;;
3046;SDS011;1533;44.816;20.420;2022-10-16T21:05:03;15.27;;;12.90;;
3046;SDS011;1533;44.816;20.420;2022-10-16T21:07:36;16.97;;;12.77;;
3046;SDS011;1533;44.816;20.420;2022-10-16T21:10:07;16.10;;;11.57;;
3046;SDS011;1533;44.816;20.420;2022-10-16T21:12:46;16.77;;;11.73;;
3046;SDS011;1533;44.816;20.420;2022-10-16T21:15:22;12.43;;;10.73;;
3046;SDS011;1533;44.816;20.420;2022-10-16T21:17:56;13.00;;;10.33;;
3046;SDS011;1533;44.816;20.420;2022-10-16T21:20:50;13.50;;;10.53;;
3046;SDS011;1533;44.816;20.420;2022-10-16T21:23:33;11.63;;;10.40;;
3046;SDS011;1533;44.816;20.420;2022-10-16T21:26:15;15.10;;;10.80;;
3046;SDS011;1533;44.816;20.420;2022-10-16T21:28:56;17.17;;;11.37;;
3046;SDS011;1533;44.816;20.420;2022-10-16T21:31:26;12.40;;;10.77;;
3046;SDS011;1533;44.816;20.420;2022-10-16T21:33:54;15.70;;;10.37;;
3046;SDS011;1533;44.816;20.420;2022-10-16T21:36:24;17.07;;;11.70;;
3046;SDS011;1533;44.816;20.420;2022-10-16T21:38:51;14.70;;;12.10;;
3046;SDS011;1533;44.816;20.420;2022-10-16T21:41:21;15.47;;;11.43;;
3046;SDS011;1533;44.816;20.420;2022-10-16T21:43:51;15.40;;;11.10;;
3046;SDS011;1533;44.816;20.420;2022-10-16T21:46:28;13.90;;;11.90;;
3046;SDS011;1533;44.816;20.420;2022-10-16T21:49:00;14.00;;;11.83;;
3046;SDS011;1533;44.816;20.420;2022-10-16T21:51:31;14.70;;;10.93;;
3046;SDS011;1533;44.816;20.420;2022-10-16T21:53:59;14.53;;;11.60;;
3046;SDS011;1533;44.816;20.420;2022-10-16T21:56:33;16.50;;;11.27;;
3046;SDS011;1533;44.816;20.420;2022-10-16T21:59:02;17.43;;;10.50;;
3046;SDS011;1533;44.816;20.420;2022-10-16T22:01:28;17.60;;;11.87;;
3046;SDS011;1533;44.816;20.420;2022-10-16T22:03:54;13.90;;;12.43;;
3046;SDS011;1533;44.816;20.420;2022-10-16T22:06:21;13.63;;;10.70;;
3046;SDS011;1533;44.816;20.420;2022-10-16T22:08:49;15.30;;;10.90;;
3046;SDS011;1533;44.816;20.420;2022-10-16T22:11:20;13.73;;;11.17;;
3046;SDS011;1533;44.816;20.420;2022-10-16T22:14:00;17.43;;;12.13;;
3046;SDS011;1533;44.816;20.420;2022-10-16T22:16:26;14.03;;;11.10;;
3046;SDS011;1533;44.816;20.420;2022-10-16T22:18:52;11.47;;;10.20;;
3046;SDS011;1533;44.816;20.420;2022-10-16T22:21:19;12.97;;;10.27;;
3046;SDS011;1533;44.816;20.420;2022-10-16T22:23:44;12.53;;;10.50;;
3046;SDS011;1533;44.816;20.420;2022-10-16T22:26:10;13.50;;;11.23;;
3046;SDS011;1533;44.816;20.420;2022-10-16T22:28:37;15.83;;;10.47;;
3046;SDS011;1533;44.816;20.420;2022-10-16T22:31:04;11.87;;;9.47;;
3046;SDS011;1533;44.816;20.420;2022-10-16T22:33:33;12.27;;;9.60;;
3046;SDS011;1533;44.816;20.420;2022-10-16T22:36:00;11.80;;;9.90;;
3046;SDS011;1533;44.816;20.420;2022-10-16T22:38:33;11.60;;;9.53;;
3046;SDS011;1533;44.816;20.420;2022-10-16T22:41:02;10.90;;;9.43;;
3046;SDS011;1533;44.816;20.420;2022-10-16T22:43:36;13.30;;;8.80;;
3046;SDS011;1533;44.816;20.420;2022-10-16T22:46:04;11.47;;;9.90;;
3046;SDS011;1533;44.816;20.420;2022-10-16T22:48:31;11.50;;;9.80;;
3046;SDS011;1533;44.816;20.420;2022-10-16T22:50:57;10.23;;;8.57;;
3046;SDS011;1533;44.816;20.420;2022-10-16T22:53:24;10.27;;;8.90;;
3046;SDS011;1533;44.816;20.420;2022-10-16T22:55:49;13.43;;;10.10;;
3046;SDS011;1533;44.816;20.420;2022-10-16T22:58:15;9.93;;;8.93;;
3046;SDS011;1533;44.816;20.420;2022-10-16T23:00:43;12.03;;;10.50;;
3046;SDS011;1533;44.816;20.420;2022-10-16T23:03:11;10.43;;;8.77;;
3046;SDS011;1533;44.816;20.420;2022-10-16T23:05:37;12.90;;;9.47;;
3046;SDS011;1533;44.816;20.420;2022-10-16T23:08:06;12.00;;;10.00;;
3046;SDS011;1533;44.816;20.420;2022-10-16T23:10:33;12.00;;;9.33;;
3046;SDS011;1533;44.816;20.420;2022-10-16T23:12:59;14.13;;;9.93;;
3046;SDS011;1533;44.816;20.420;2022-10-16T23:15:25;12.23;;;8.63;;
3046;SDS011;1533;44.816;20.420;2022-10-16T23:17:50;12.60;;;10.20;;
3046;SDS011;1533;44.816;20.420;2022-10-16T23:20:16;12.53;;;10.03;;
3046;SDS011;1533;44.816;20.420;2022-10-16T23:22:45;13.50;;;9.53;;
3046;SDS011;1533;44.816;20.420;2022-10-16T23:25:10;12.87;;;9.63;;
3046;SDS011;1533;44.816;20.420;2022-10-16T23:27:38;16.60;;;10.43;;
3046;SDS011;1533;44.816;20.420;2022-10-16T23:30:06;14.00;;;10.03;;
3046;SDS011;1533;44.816;20.420;2022-10-16T23:32:35;12.20;;;9.60;;
3046;SDS011;1533;44.816;20.420;2022-10-16T23:35:00;16.13;;;10.43;;
3046;SDS011;1533;44.816;20.420;2022-10-16T23:37:26;11.87;;;9.60;;
3046;SDS011;1533;44.816;20.420;2022-10-16T23:39:51;14.33;;;9.10;;
3046;SDS011;1533;44.816;20.420;2022-10-16T23:42:18;15.07;;;9.40;;
3046;SDS011;1533;44.816;20.420;2022-10-16T23:44:43;13.70;;;9.30;;
3046;SDS011;1533;44.816;20.420;2022-10-16T23:47:09;11.10;;;8.70;;
3046;SDS011;1533;44.816;20.420;2022-10-16T23:49:35;11.10;;;9.00;;
3046;SDS011;1533;44.816;20.420;2022-10-16T23:52:00;12.77;;;8.67;;
3046;SDS011;1533;44.816;20.420;2022-10-16T23:54:26;11.50;;;9.03;;
3046;SDS011;1533;44.816;20.420;2022-10-16T23:56:51;10.80;;;8.40;;
3046;SDS011;1533;44.816;20.420;2022-10-16T23:59:17;10.67;;;8.77;;
